sensor_id;sensor_type;location;lat;lon;timestamp;P1;durP1;ratioP1;P2;durP2;ratioP2
23555;SDS011;11956;53.184;8.578;2023-04-06T00:01:07;17.08;;;8.93;;
23555;SDS011;11956;53.184;8.578;2023-04-06T00:04:08;14.82;;;10.00;;
23555;SDS011;11956;53.184;8.578;2023-04-06T00:07:09;16.50;;;9.98;;
23555;SDS011;11956;53.184;8.578;2023-04-06T00:10:10;14.48;;;9.90;;
23555;SDS011;11956;53.184;8.578;2023-04-06T00:13:11;14.30;;;9.43;;
23555;SDS011;11956;53.184;8.578;2023-04-06T00:16:12;16.58;;;10.13;;
23555;SDS011;11956;53.184;8.578;2023-04-06T00:19:13;14.13;;;10.43;;
23555;SDS011;11956;53.184;8.578;2023-04-06T00:22:14;15.40;;;10.40;;
23555;SDS011;11956;53.184;8.578;2023-04-06T00:25:15;15.27;;;10.43;;
23555;SDS011;11956;53.184;8.578;2023-04-06T00:28:16;18.42;;;11.15;;
23555;SDS011;11956;53.184;8.578;2023-04-06T00:31:17;16.33;;;10.57;;
23555;SDS011;11956;53.184;8.578;2023-04-06T00:34:18;17.25;;;10.40;;
23555;SDS011;11956;53.184;8.578;2023-04-06T00:37:19;17.63;;;11.80;;
23555;SDS011;11956;53.184;8.578;2023-04-06T00:40:20;18.08;;;11.32;;
23555;SDS011;11956;53.184;8.578;2023-04-06T00:43:22;18.27;;;11.15;;
23555;SDS011;11956;53.184;8.578;2023-04-06T00:46:24;16.33;;;11.27;;
23555;SDS011;11956;53.184;8.578;2023-04-06T00:49:25;16.60;;;11.20;;
23555;SDS011;11956;53.184;8.578;2023-04-06T00:52:26;16.73;;;11.07;;
23555;SDS011;11956;53.184;8.578;2023-04-06T00:55:28;21.98;;;13.00;;
23555;SDS011;11956;53.184;8.578;2023-04-06T00:58:30;17.27;;;11.50;;
23555;SDS011;11956;53.184;8.578;2023-04-06T01:01:38;19.02;;;12.18;;
23555;SDS011;11956;53.184;8.578;2023-04-06T01:04:55;20.23;;;13.43;;
23555;SDS011;11956;53.184;8.578;2023-04-06T01:08:10;20.13;;;12.55;;
23555;SDS011;11956;53.184;8.578;2023-04-06T01:11:11;20.08;;;12.13;;
23555;SDS011;11956;53.184;8.578;2023-04-06T01:14:13;23.20;;;14.48;;
23555;SDS011;11956;53.184;8.578;2023-04-06T01:17:26;32.70;;;20.98;;
23555;SDS011;11956;53.184;8.578;2023-04-06T01:20:30;31.02;;;20.73;;
23555;SDS011;11956;53.184;8.578;2023-04-06T01:23:35;35.95;;;22.95;;
23555;SDS011;11956;53.184;8.578;2023-04-06T01:26:37;20.05;;;13.98;;
23555;SDS011;11956;53.184;8.578;2023-04-06T01:29:42;23.90;;;15.70;;
23555;SDS011;11956;53.184;8.578;2023-04-06T01:32:45;23.98;;;14.65;;
23555;SDS011;11956;53.184;8.578;2023-04-06T01:35:50;33.67;;;22.00;;
23555;SDS011;11956;53.184;8.578;2023-04-06T01:38:53;26.95;;;16.73;;
23555;SDS011;11956;53.184;8.578;2023-04-06T01:42:03;28.00;;;18.00;;
23555;SDS011;11956;53.184;8.578;2023-04-06T01:48:08;25.23;;;16.35;;
23555;SDS011;11956;53.184;8.578;2023-04-06T01:51:09;26.50;;;15.43;;
23555;SDS011;11956;53.184;8.578;2023-04-06T01:54:18;21.38;;;13.80;;
23555;SDS011;11956;53.184;8.578;2023-04-06T01:57:42;21.45;;;14.10;;
23555;SDS011;11956;53.184;8.578;2023-04-06T02:00:51;21.33;;;14.05;;
23555;SDS011;11956;53.184;8.578;2023-04-06T02:03:53;18.50;;;13.15;;
23555;SDS011;11956;53.184;8.578;2023-04-06T02:06:55;21.38;;;14.70;;
23555;SDS011;11956;53.184;8.578;2023-04-06T02:09:58;29.17;;;15.85;;
23555;SDS011;11956;53.184;8.578;2023-04-06T02:13:08;26.83;;;16.55;;
23555;SDS011;11956;53.184;8.578;2023-04-06T02:16:10;22.67;;;15.07;;
23555;SDS011;11956;53.184;8.578;2023-04-06T02:19:11;24.90;;;15.30;;
23555;SDS011;11956;53.184;8.578;2023-04-06T02:22:12;24.67;;;16.67;;
23555;SDS011;11956;53.184;8.578;2023-04-06T02:25:13;29.98;;;18.02;;
23555;SDS011;11956;53.184;8.578;2023-04-06T02:28:14;29.77;;;17.02;;
23555;SDS011;11956;53.184;8.578;2023-04-06T02:31:15;27.90;;;16.98;;
23555;SDS011;11956;53.184;8.578;2023-04-06T02:34:18;27.55;;;18.40;;
23555;SDS011;11956;53.184;8.578;2023-04-06T02:37:22;29.55;;;19.20;;
23555;SDS011;11956;53.184;8.578;2023-04-06T02:40:24;29.08;;;19.33;;
23555;SDS011;11956;53.184;8.578;2023-04-06T02:43:25;31.25;;;19.10;;
23555;SDS011;11956;53.184;8.578;2023-04-06T02:46:36;29.23;;;18.38;;
23555;SDS011;11956;53.184;8.578;2023-04-06T02:49:37;31.27;;;18.60;;
23555;SDS011;11956;53.184;8.578;2023-04-06T02:52:38;30.00;;;19.42;;
23555;SDS011;11956;53.184;8.578;2023-04-06T02:55:40;30.48;;;18.92;;
23555;SDS011;11956;53.184;8.578;2023-04-06T02:58:41;35.50;;;22.20;;
23555;SDS011;11956;53.184;8.578;2023-04-06T03:01:43;33.70;;;19.88;;
23555;SDS011;11956;53.184;8.578;2023-04-06T03:04:44;30.45;;;19.20;;
23555;SDS011;11956;53.184;8.578;2023-04-06T03:07:55;29.08;;;18.85;;
23555;SDS011;11956;53.184;8.578;2023-04-06T03:11:06;27.65;;;18.25;;
23555;SDS011;11956;53.184;8.578;2023-04-06T03:14:12;33.80;;;19.75;;
23555;SDS011;11956;53.184;8.578;2023-04-06T03:17:13;31.70;;;19.38;;
23555;SDS011;11956;53.184;8.578;2023-04-06T03:20:15;30.88;;;19.33;;
23555;SDS011;11956;53.184;8.578;2023-04-06T03:23:16;28.50;;;19.65;;
23555;SDS011;11956;53.184;8.578;2023-04-06T03:26:18;30.67;;;17.53;;
23555;SDS011;11956;53.184;8.578;2023-04-06T03:29:20;24.10;;;16.77;;
23555;SDS011;11956;53.184;8.578;2023-04-06T03:32:21;27.38;;;17.67;;
23555;SDS011;11956;53.184;8.578;2023-04-06T03:35:22;29.55;;;19.75;;
23555;SDS011;11956;53.184;8.578;2023-04-06T03:38:24;33.53;;;20.13;;
23555;SDS011;11956;53.184;8.578;2023-04-06T03:41:25;32.75;;;20.77;;
23555;SDS011;11956;53.184;8.578;2023-04-06T03:44:41;32.47;;;19.98;;
23555;SDS011;11956;53.184;8.578;2023-04-06T03:47:43;33.30;;;20.50;;
23555;SDS011;11956;53.184;8.578;2023-04-06T03:50:44;35.08;;;21.45;;
23555;SDS011;11956;53.184;8.578;2023-04-06T03:53:45;37.78;;;22.30;;
23555;SDS011;11956;53.184;8.578;2023-04-06T03:56:46;36.67;;;22.05;;
23555;SDS011;11956;53.184;8.578;2023-04-06T03:59:47;33.80;;;21.67;;
23555;SDS011;11956;53.184;8.578;2023-04-06T04:02:47;34.33;;;20.60;;
23555;SDS011;11956;53.184;8.578;2023-04-06T04:05:49;37.42;;;22.65;;
23555;SDS011;11956;53.184;8.578;2023-04-06T04:08:51;35.97;;;22.90;;
23555;SDS011;11956;53.184;8.578;2023-04-06T04:11:52;36.45;;;21.17;;
23555;SDS011;11956;53.184;8.578;2023-04-06T04:14:55;36.58;;;21.23;;
23555;SDS011;11956;53.184;8.578;2023-04-06T04:17:56;36.88;;;22.23;;
23555;SDS011;11956;53.184;8.578;2023-04-06T04:20:57;35.40;;;22.83;;
23555;SDS011;11956;53.184;8.578;2023-04-06T04:23:58;34.70;;;22.10;;
23555;SDS011;11956;53.184;8.578;2023-04-06T04:26:59;33.33;;;22.17;;
23555;SDS011;11956;53.184;8.578;2023-04-06T04:30:06;33.42;;;21.48;;
23555;SDS011;11956;53.184;8.578;2023-04-06T04:33:08;33.97;;;21.77;;
23555;SDS011;11956;53.184;8.578;2023-04-06T04:36:09;36.90;;;20.88;;
23555;SDS011;11956;53.184;8.578;2023-04-06T04:39:15;34.40;;;21.27;;
23555;SDS011;11956;53.184;8.578;2023-04-06T04:42:21;32.50;;;20.73;;
23555;SDS011;11956;53.184;8.578;2023-04-06T04:45:25;33.90;;;21.08;;
23555;SDS011;11956;53.184;8.578;2023-04-06T04:48:27;37.72;;;22.23;;
23555;SDS011;11956;53.184;8.578;2023-04-06T04:51:35;30.83;;;20.80;;
23555;SDS011;11956;53.184;8.578;2023-04-06T04:54:48;27.80;;;19.88;;
23555;SDS011;11956;53.184;8.578;2023-04-06T04:57:56;28.85;;;19.02;;
23555;SDS011;11956;53.184;8.578;2023-04-06T05:01:10;27.15;;;18.55;;
23555;SDS011;11956;53.184;8.578;2023-04-06T05:04:13;26.88;;;18.70;;
23555;SDS011;11956;53.184;8.578;2023-04-06T05:07:14;29.02;;;19.45;;
23555;SDS011;11956;53.184;8.578;2023-04-06T05:10:18;23.27;;;16.65;;
23555;SDS011;11956;53.184;8.578;2023-04-06T05:13:29;24.63;;;17.15;;
23555;SDS011;11956;53.184;8.578;2023-04-06T05:16:33;20.75;;;15.82;;
23555;SDS011;11956;53.184;8.578;2023-04-06T05:19:35;22.83;;;16.08;;
23555;SDS011;11956;53.184;8.578;2023-04-06T05:22:36;20.10;;;15.45;;
23555;SDS011;11956;53.184;8.578;2023-04-06T05:25:41;21.25;;;15.93;;
23555;SDS011;11956;53.184;8.578;2023-04-06T05:28:53;20.00;;;13.82;;
23555;SDS011;11956;53.184;8.578;2023-04-06T05:31:55;18.90;;;13.80;;
23555;SDS011;11956;53.184;8.578;2023-04-06T05:34:57;18.35;;;12.82;;
23555;SDS011;11956;53.184;8.578;2023-04-06T05:37:58;17.40;;;13.30;;
23555;SDS011;11956;53.184;8.578;2023-04-06T05:41:01;18.48;;;12.18;;
23555;SDS011;11956;53.184;8.578;2023-04-06T05:44:07;15.20;;;10.45;;
23555;SDS011;11956;53.184;8.578;2023-04-06T05:47:08;14.52;;;10.25;;
23555;SDS011;11956;53.184;8.578;2023-04-06T05:50:11;14.18;;;10.00;;
23555;SDS011;11956;53.184;8.578;2023-04-06T05:53:15;11.52;;;9.43;;
23555;SDS011;11956;53.184;8.578;2023-04-06T05:56:26;13.63;;;9.02;;
23555;SDS011;11956;53.184;8.578;2023-04-06T05:59:27;12.23;;;8.68;;
23555;SDS011;11956;53.184;8.578;2023-04-06T06:02:30;10.10;;;8.35;;
23555;SDS011;11956;53.184;8.578;2023-04-06T06:05:31;12.65;;;8.80;;
23555;SDS011;11956;53.184;8.578;2023-04-06T06:08:39;13.93;;;9.15;;
23555;SDS011;11956;53.184;8.578;2023-04-06T06:11:46;13.70;;;8.85;;
23555;SDS011;11956;53.184;8.578;2023-04-06T06:14:51;12.88;;;8.10;;
23555;SDS011;11956;53.184;8.578;2023-04-06T06:17:53;12.32;;;8.45;;
23555;SDS011;11956;53.184;8.578;2023-04-06T06:20:54;12.30;;;8.38;;
23555;SDS011;11956;53.184;8.578;2023-04-06T06:23:56;11.55;;;7.68;;
23555;SDS011;11956;53.184;8.578;2023-04-06T06:26:58;11.30;;;7.82;;
23555;SDS011;11956;53.184;8.578;2023-04-06T06:30:02;11.25;;;8.32;;
23555;SDS011;11956;53.184;8.578;2023-04-06T06:36:06;15.43;;;9.15;;
23555;SDS011;11956;53.184;8.578;2023-04-06T06:39:07;15.68;;;7.93;;
23555;SDS011;11956;53.184;8.578;2023-04-06T06:42:08;13.70;;;9.02;;
23555;SDS011;11956;53.184;8.578;2023-04-06T06:45:34;12.18;;;8.18;;
23555;SDS011;11956;53.184;8.578;2023-04-06T06:48:35;15.55;;;7.90;;
23555;SDS011;11956;53.184;8.578;2023-04-06T06:51:36;12.65;;;8.60;;
23555;SDS011;11956;53.184;8.578;2023-04-06T06:54:37;12.15;;;7.50;;
23555;SDS011;11956;53.184;8.578;2023-04-06T06:57:38;15.60;;;7.53;;
23555;SDS011;11956;53.184;8.578;2023-04-06T07:00:41;11.68;;;8.27;;
23555;SDS011;11956;53.184;8.578;2023-04-06T07:03:41;16.63;;;8.77;;
23555;SDS011;11956;53.184;8.578;2023-04-06T07:06:42;14.25;;;8.57;;
23555;SDS011;11956;53.184;8.578;2023-04-06T07:09:43;12.38;;;8.80;;
23555;SDS011;11956;53.184;8.578;2023-04-06T07:12:44;15.90;;;8.85;;
23555;SDS011;11956;53.184;8.578;2023-04-06T07:15:46;15.63;;;8.23;;
23555;SDS011;11956;53.184;8.578;2023-04-06T07:18:47;18.27;;;8.93;;
23555;SDS011;11956;53.184;8.578;2023-04-06T07:21:48;13.68;;;7.85;;
23555;SDS011;11956;53.184;8.578;2023-04-06T07:24:49;14.82;;;8.25;;
23555;SDS011;11956;53.184;8.578;2023-04-06T07:27:50;14.05;;;8.52;;
23555;SDS011;11956;53.184;8.578;2023-04-06T07:30:53;16.20;;;8.52;;
23555;SDS011;11956;53.184;8.578;2023-04-06T07:33:55;19.85;;;8.07;;
23555;SDS011;11956;53.184;8.578;2023-04-06T07:36:57;16.48;;;8.18;;
23555;SDS011;11956;53.184;8.578;2023-04-06T07:40:00;17.75;;;8.02;;
23555;SDS011;11956;53.184;8.578;2023-04-06T07:43:02;12.63;;;7.43;;
23555;SDS011;11956;53.184;8.578;2023-04-06T07:46:04;15.38;;;7.55;;
23555;SDS011;11956;53.184;8.578;2023-04-06T07:49:05;10.40;;;7.43;;
23555;SDS011;11956;53.184;8.578;2023-04-06T07:52:08;10.70;;;6.97;;
23555;SDS011;11956;53.184;8.578;2023-04-06T07:55:09;13.48;;;7.00;;
23555;SDS011;11956;53.184;8.578;2023-04-06T07:58:10;9.65;;;6.93;;
23555;SDS011;11956;53.184;8.578;2023-04-06T08:01:11;12.85;;;6.95;;
23555;SDS011;11956;53.184;8.578;2023-04-06T08:04:12;13.73;;;6.72;;
23555;SDS011;11956;53.184;8.578;2023-04-06T08:07:12;13.55;;;6.72;;
23555;SDS011;11956;53.184;8.578;2023-04-06T08:10:13;12.93;;;6.45;;
23555;SDS011;11956;53.184;8.578;2023-04-06T08:13:15;12.00;;;6.68;;
23555;SDS011;11956;53.184;8.578;2023-04-06T08:16:16;11.25;;;6.32;;
23555;SDS011;11956;53.184;8.578;2023-04-06T08:19:17;7.65;;;6.10;;
23555;SDS011;11956;53.184;8.578;2023-04-06T08:22:19;8.38;;;5.25;;
23555;SDS011;11956;53.184;8.578;2023-04-06T08:25:20;6.43;;;5.57;;
23555;SDS011;11956;53.184;8.578;2023-04-06T08:28:21;8.00;;;6.03;;
23555;SDS011;11956;53.184;8.578;2023-04-06T08:31:22;9.20;;;5.80;;
23555;SDS011;11956;53.184;8.578;2023-04-06T08:34:23;9.02;;;6.20;;
23555;SDS011;11956;53.184;8.578;2023-04-06T08:37:24;7.47;;;6.10;;
23555;SDS011;11956;53.184;8.578;2023-04-06T08:40:25;7.70;;;5.68;;
23555;SDS011;11956;53.184;8.578;2023-04-06T08:43:27;8.00;;;5.97;;
23555;SDS011;11956;53.184;8.578;2023-04-06T08:46:29;7.93;;;6.10;;
23555;SDS011;11956;53.184;8.578;2023-04-06T08:49:31;9.52;;;6.25;;
23555;SDS011;11956;53.184;8.578;2023-04-06T08:52:33;7.63;;;6.05;;
23555;SDS011;11956;53.184;8.578;2023-04-06T08:55:34;8.13;;;5.82;;
23555;SDS011;11956;53.184;8.578;2023-04-06T08:58:37;6.10;;;5.15;;
23555;SDS011;11956;53.184;8.578;2023-04-06T09:01:40;8.50;;;5.38;;
23555;SDS011;11956;53.184;8.578;2023-04-06T09:04:43;8.73;;;5.93;;
23555;SDS011;11956;53.184;8.578;2023-04-06T09:07:49;10.35;;;6.38;;
23555;SDS011;11956;53.184;8.578;2023-04-06T09:10:50;9.10;;;6.15;;
23555;SDS011;11956;53.184;8.578;2023-04-06T09:13:53;7.30;;;5.80;;
23555;SDS011;11956;53.184;8.578;2023-04-06T09:16:57;7.90;;;5.93;;
23555;SDS011;11956;53.184;8.578;2023-04-06T09:19:59;8.15;;;5.93;;
23555;SDS011;11956;53.184;8.578;2023-04-06T09:23:01;9.38;;;6.35;;
23555;SDS011;11956;53.184;8.578;2023-04-06T09:26:09;8.35;;;6.35;;
23555;SDS011;11956;53.184;8.578;2023-04-06T09:29:25;9.25;;;6.55;;
23555;SDS011;11956;53.184;8.578;2023-04-06T09:32:27;9.90;;;6.53;;
23555;SDS011;11956;53.184;8.578;2023-04-06T09:35:28;9.75;;;6.38;;
23555;SDS011;11956;53.184;8.578;2023-04-06T09:38:31;8.05;;;6.43;;
23555;SDS011;11956;53.184;8.578;2023-04-06T09:41:33;9.40;;;7.05;;
23555;SDS011;11956;53.184;8.578;2023-04-06T09:44:35;9.30;;;6.88;;
23555;SDS011;11956;53.184;8.578;2023-04-06T09:47:36;9.90;;;7.10;;
23555;SDS011;11956;53.184;8.578;2023-04-06T09:50:40;8.68;;;6.90;;
23555;SDS011;11956;53.184;8.578;2023-04-06T09:53:42;9.30;;;6.80;;
23555;SDS011;11956;53.184;8.578;2023-04-06T10:00:22;10.30;;;7.00;;
23555;SDS011;11956;53.184;8.578;2023-04-06T10:06:38;8.63;;;7.00;;
23555;SDS011;11956;53.184;8.578;2023-04-06T10:09:40;10.88;;;7.90;;
23555;SDS011;11956;53.184;8.578;2023-04-06T10:12:46;12.43;;;8.13;;
23555;SDS011;11956;53.184;8.578;2023-04-06T10:15:48;9.10;;;7.22;;
23555;SDS011;11956;53.184;8.578;2023-04-06T10:18:50;11.98;;;7.60;;
23555;SDS011;11956;53.184;8.578;2023-04-06T10:21:57;11.00;;;8.15;;
23555;SDS011;11956;53.184;8.578;2023-04-06T10:24:59;11.15;;;7.88;;
23555;SDS011;11956;53.184;8.578;2023-04-06T10:28:09;11.38;;;7.78;;
23555;SDS011;11956;53.184;8.578;2023-04-06T10:31:12;9.77;;;7.97;;
23555;SDS011;11956;53.184;8.578;2023-04-06T10:34:13;9.93;;;8.02;;
23555;SDS011;11956;53.184;8.578;2023-04-06T10:37:15;13.70;;;8.05;;
23555;SDS011;11956;53.184;8.578;2023-04-06T10:40:22;11.70;;;8.20;;
23555;SDS011;11956;53.184;8.578;2023-04-06T10:43:25;11.23;;;8.48;;
23555;SDS011;11956;53.184;8.578;2023-04-06T10:46:27;11.52;;;8.63;;
23555;SDS011;11956;53.184;8.578;2023-04-06T10:49:33;12.75;;;8.90;;
23555;SDS011;11956;53.184;8.578;2023-04-06T10:52:34;11.98;;;8.82;;
23555;SDS011;11956;53.184;8.578;2023-04-06T10:55:34;13.00;;;9.50;;
23555;SDS011;11956;53.184;8.578;2023-04-06T10:58:44;13.27;;;9.82;;
23555;SDS011;11956;53.184;8.578;2023-04-06T11:01:48;13.27;;;9.65;;
23555;SDS011;11956;53.184;8.578;2023-04-06T11:04:56;11.52;;;9.48;;
23555;SDS011;11956;53.184;8.578;2023-04-06T11:07:58;15.55;;;10.52;;
23555;SDS011;11956;53.184;8.578;2023-04-06T11:11:12;15.38;;;11.25;;
23555;SDS011;11956;53.184;8.578;2023-04-06T11:14:18;19.95;;;12.98;;
23555;SDS011;11956;53.184;8.578;2023-04-06T11:17:25;17.65;;;11.73;;
23555;SDS011;11956;53.184;8.578;2023-04-06T11:20:28;19.00;;;12.60;;
23555;SDS011;11956;53.184;8.578;2023-04-06T11:23:29;18.67;;;13.20;;
23555;SDS011;11956;53.184;8.578;2023-04-06T11:26:29;21.40;;;13.18;;
23555;SDS011;11956;53.184;8.578;2023-04-06T11:29:30;18.63;;;12.57;;
23555;SDS011;11956;53.184;8.578;2023-04-06T11:32:39;19.45;;;12.95;;
23555;SDS011;11956;53.184;8.578;2023-04-06T11:35:45;18.90;;;12.55;;
23555;SDS011;11956;53.184;8.578;2023-04-06T11:38:46;18.40;;;12.48;;
23555;SDS011;11956;53.184;8.578;2023-04-06T11:41:50;18.90;;;12.50;;
23555;SDS011;11956;53.184;8.578;2023-04-06T11:44:54;18.02;;;12.43;;
23555;SDS011;11956;53.184;8.578;2023-04-06T11:47:59;15.13;;;11.68;;
23555;SDS011;11956;53.184;8.578;2023-04-06T11:51:01;17.52;;;11.48;;
23555;SDS011;11956;53.184;8.578;2023-04-06T11:54:03;18.30;;;11.70;;
23555;SDS011;11956;53.184;8.578;2023-04-06T11:57:04;15.60;;;11.15;;
23555;SDS011;11956;53.184;8.578;2023-04-06T12:00:06;17.63;;;11.25;;
23555;SDS011;11956;53.184;8.578;2023-04-06T12:03:09;17.55;;;11.52;;
23555;SDS011;11956;53.184;8.578;2023-04-06T12:06:12;17.70;;;11.52;;
23555;SDS011;11956;53.184;8.578;2023-04-06T12:09:13;21.48;;;11.95;;
23555;SDS011;11956;53.184;8.578;2023-04-06T12:12:14;17.27;;;10.45;;
23555;SDS011;11956;53.184;8.578;2023-04-06T12:15:15;15.23;;;11.50;;
23555;SDS011;11956;53.184;8.578;2023-04-06T12:18:16;16.17;;;12.18;;
23555;SDS011;11956;53.184;8.578;2023-04-06T12:21:17;16.45;;;11.15;;
23555;SDS011;11956;53.184;8.578;2023-04-06T12:24:18;16.75;;;11.40;;
23555;SDS011;11956;53.184;8.578;2023-04-06T12:27:19;16.77;;;11.23;;
23555;SDS011;11956;53.184;8.578;2023-04-06T12:30:20;14.68;;;10.77;;
23555;SDS011;11956;53.184;8.578;2023-04-06T12:33:21;18.50;;;11.50;;
23555;SDS011;11956;53.184;8.578;2023-04-06T12:36:22;16.13;;;11.43;;
23555;SDS011;11956;53.184;8.578;2023-04-06T12:39:24;14.43;;;10.27;;
23555;SDS011;11956;53.184;8.578;2023-04-06T12:42:25;15.45;;;10.70;;
23555;SDS011;11956;53.184;8.578;2023-04-06T12:45:26;13.82;;;10.32;;
23555;SDS011;11956;53.184;8.578;2023-04-06T12:48:27;15.63;;;10.88;;
23555;SDS011;11956;53.184;8.578;2023-04-06T12:51:28;15.68;;;11.02;;
23555;SDS011;11956;53.184;8.578;2023-04-06T12:54:29;16.35;;;10.88;;
23555;SDS011;11956;53.184;8.578;2023-04-06T12:57:30;14.80;;;10.10;;
23555;SDS011;11956;53.184;8.578;2023-04-06T13:00:31;13.93;;;10.18;;
23555;SDS011;11956;53.184;8.578;2023-04-06T13:03:32;14.95;;;10.80;;
23555;SDS011;11956;53.184;8.578;2023-04-06T13:06:34;15.02;;;9.70;;
23555;SDS011;11956;53.184;8.578;2023-04-06T13:09:35;13.60;;;10.18;;
23555;SDS011;11956;53.184;8.578;2023-04-06T13:12:36;14.43;;;10.23;;
23555;SDS011;11956;53.184;8.578;2023-04-06T13:15:36;15.18;;;10.52;;
23555;SDS011;11956;53.184;8.578;2023-04-06T13:18:37;14.85;;;10.52;;
23555;SDS011;11956;53.184;8.578;2023-04-06T13:21:39;15.35;;;10.90;;
23555;SDS011;11956;53.184;8.578;2023-04-06T13:24:40;12.80;;;9.52;;
23555;SDS011;11956;53.184;8.578;2023-04-06T13:27:40;14.65;;;10.30;;
23555;SDS011;11956;53.184;8.578;2023-04-06T13:30:47;13.38;;;10.13;;
23555;SDS011;11956;53.184;8.578;2023-04-06T13:33:49;15.55;;;10.00;;
23555;SDS011;11956;53.184;8.578;2023-04-06T13:36:50;12.65;;;9.23;;
23555;SDS011;11956;53.184;8.578;2023-04-06T13:39:51;12.70;;;9.30;;
23555;SDS011;11956;53.184;8.578;2023-04-06T13:42:52;13.77;;;9.38;;
23555;SDS011;11956;53.184;8.578;2023-04-06T13:45:53;11.57;;;8.93;;
23555;SDS011;11956;53.184;8.578;2023-04-06T13:48:55;15.25;;;10.18;;
23555;SDS011;11956;53.184;8.578;2023-04-06T13:51:56;12.85;;;9.63;;
23555;SDS011;11956;53.184;8.578;2023-04-06T13:54:57;12.93;;;9.73;;
23555;SDS011;11956;53.184;8.578;2023-04-06T13:57:58;12.57;;;9.13;;
23555;SDS011;11956;53.184;8.578;2023-04-06T14:01:03;14.00;;;9.32;;
23555;SDS011;11956;53.184;8.578;2023-04-06T14:04:06;13.35;;;9.35;;
23555;SDS011;11956;53.184;8.578;2023-04-06T14:07:07;14.40;;;9.40;;
23555;SDS011;11956;53.184;8.578;2023-04-06T14:10:08;12.57;;;9.57;;
23555;SDS011;11956;53.184;8.578;2023-04-06T14:13:13;12.85;;;9.60;;
23555;SDS011;11956;53.184;8.578;2023-04-06T14:16:15;17.02;;;12.68;;
23555;SDS011;11956;53.184;8.578;2023-04-06T14:19:19;14.48;;;9.80;;
23555;SDS011;11956;53.184;8.578;2023-04-06T14:25:23;16.45;;;10.25;;
23555;SDS011;11956;53.184;8.578;2023-04-06T14:28:25;13.57;;;9.73;;
23555;SDS011;11956;53.184;8.578;2023-04-06T14:31:27;14.45;;;10.05;;
23555;SDS011;11956;53.184;8.578;2023-04-06T14:34:38;16.50;;;10.57;;
23555;SDS011;11956;53.184;8.578;2023-04-06T14:37:39;14.95;;;11.00;;
23555;SDS011;11956;53.184;8.578;2023-04-06T14:40:40;16.55;;;11.43;;
23555;SDS011;11956;53.184;8.578;2023-04-06T14:43:41;17.63;;;10.90;;
23555;SDS011;11956;53.184;8.578;2023-04-06T14:46:42;13.90;;;10.45;;
23555;SDS011;11956;53.184;8.578;2023-04-06T14:49:43;13.95;;;9.95;;
23555;SDS011;11956;53.184;8.578;2023-04-06T14:52:54;18.27;;;10.93;;
23555;SDS011;11956;53.184;8.578;2023-04-06T14:56:18;15.77;;;10.48;;
23555;SDS011;11956;53.184;8.578;2023-04-06T14:59:23;13.05;;;9.70;;
23555;SDS011;11956;53.184;8.578;2023-04-06T15:02:24;12.93;;;9.20;;
23555;SDS011;11956;53.184;8.578;2023-04-06T15:05:25;17.90;;;10.05;;
23555;SDS011;11956;53.184;8.578;2023-04-06T15:08:26;12.68;;;9.90;;
23555;SDS011;11956;53.184;8.578;2023-04-06T15:11:27;14.68;;;9.90;;
23555;SDS011;11956;53.184;8.578;2023-04-06T15:14:28;14.20;;;9.85;;
23555;SDS011;11956;53.184;8.578;2023-04-06T15:17:29;13.65;;;9.80;;
23555;SDS011;11956;53.184;8.578;2023-04-06T15:20:30;13.80;;;10.35;;
23555;SDS011;11956;53.184;8.578;2023-04-06T15:23:31;13.57;;;9.45;;
23555;SDS011;11956;53.184;8.578;2023-04-06T15:26:35;14.20;;;9.77;;
23555;SDS011;11956;53.184;8.578;2023-04-06T15:29:49;14.57;;;9.60;;
23555;SDS011;11956;53.184;8.578;2023-04-06T15:34:15;17.77;;;10.63;;
23555;SDS011;11956;53.184;8.578;2023-04-06T15:37:17;13.90;;;9.93;;
23555;SDS011;11956;53.184;8.578;2023-04-06T15:40:19;14.93;;;10.15;;
23555;SDS011;11956;53.184;8.578;2023-04-06T15:43:29;13.23;;;10.02;;
23555;SDS011;11956;53.184;8.578;2023-04-06T15:47:27;15.70;;;10.77;;
23555;SDS011;11956;53.184;8.578;2023-04-06T15:50:28;15.68;;;10.57;;
23555;SDS011;11956;53.184;8.578;2023-04-06T15:53:43;15.48;;;11.15;;
23555;SDS011;11956;53.184;8.578;2023-04-06T15:56:44;14.25;;;10.20;;
23555;SDS011;11956;53.184;8.578;2023-04-06T15:59:46;14.60;;;10.68;;
23555;SDS011;11956;53.184;8.578;2023-04-06T16:02:48;16.10;;;10.60;;
23555;SDS011;11956;53.184;8.578;2023-04-06T16:06:16;13.73;;;10.82;;
23555;SDS011;11956;53.184;8.578;2023-04-06T16:09:17;17.50;;;12.00;;
23555;SDS011;11956;53.184;8.578;2023-04-06T16:12:18;17.40;;;11.18;;
23555;SDS011;11956;53.184;8.578;2023-04-06T16:15:19;16.10;;;11.57;;
23555;SDS011;11956;53.184;8.578;2023-04-06T16:18:20;14.82;;;11.35;;
23555;SDS011;11956;53.184;8.578;2023-04-06T16:21:21;15.85;;;11.57;;
23555;SDS011;11956;53.184;8.578;2023-04-06T16:24:23;15.05;;;10.90;;
23555;SDS011;11956;53.184;8.578;2023-04-06T16:27:24;14.82;;;10.57;;
23555;SDS011;11956;53.184;8.578;2023-04-06T16:30:25;14.35;;;11.05;;
23555;SDS011;11956;53.184;8.578;2023-04-06T16:37:10;15.70;;;10.60;;
23555;SDS011;11956;53.184;8.578;2023-04-06T16:40:11;17.42;;;11.63;;
23555;SDS011;11956;53.184;8.578;2023-04-06T16:43:23;20.08;;;11.35;;
23555;SDS011;11956;53.184;8.578;2023-04-06T16:47:24;15.60;;;11.10;;
23555;SDS011;11956;53.184;8.578;2023-04-06T16:50:25;15.60;;;11.57;;
23555;SDS011;11956;53.184;8.578;2023-04-06T16:53:26;15.60;;;11.02;;
23555;SDS011;11956;53.184;8.578;2023-04-06T17:00:46;26.05;;;11.15;;
23555;SDS011;11956;53.184;8.578;2023-04-06T17:04:05;14.68;;;11.43;;
23555;SDS011;11956;53.184;8.578;2023-04-06T17:07:06;16.30;;;11.35;;
23555;SDS011;11956;53.184;8.578;2023-04-06T17:10:08;17.70;;;11.35;;
23555;SDS011;11956;53.184;8.578;2023-04-06T17:13:10;18.85;;;11.20;;
23555;SDS011;11956;53.184;8.578;2023-04-06T17:16:11;13.95;;;10.52;;
23555;SDS011;11956;53.184;8.578;2023-04-06T17:19:11;15.32;;;10.95;;
23555;SDS011;11956;53.184;8.578;2023-04-06T17:22:12;17.73;;;11.25;;
23555;SDS011;11956;53.184;8.578;2023-04-06T17:25:19;16.05;;;11.30;;
23555;SDS011;11956;53.184;8.578;2023-04-06T17:28:20;16.48;;;10.77;;
23555;SDS011;11956;53.184;8.578;2023-04-06T17:31:21;13.88;;;10.60;;
23555;SDS011;11956;53.184;8.578;2023-04-06T17:34:22;16.02;;;10.73;;
23555;SDS011;11956;53.184;8.578;2023-04-06T17:37:23;15.60;;;10.57;;
23555;SDS011;11956;53.184;8.578;2023-04-06T17:40:24;12.52;;;9.77;;
23555;SDS011;11956;53.184;8.578;2023-04-06T17:43:25;17.30;;;10.80;;
23555;SDS011;11956;53.184;8.578;2023-04-06T17:46:26;15.13;;;11.15;;
23555;SDS011;11956;53.184;8.578;2023-04-06T17:49:27;15.80;;;10.70;;
23555;SDS011;11956;53.184;8.578;2023-04-06T17:52:28;14.63;;;9.75;;
23555;SDS011;11956;53.184;8.578;2023-04-06T17:55:29;15.00;;;10.35;;
23555;SDS011;11956;53.184;8.578;2023-04-06T17:58:30;15.05;;;10.50;;
23555;SDS011;11956;53.184;8.578;2023-04-06T18:01:31;16.40;;;10.40;;
23555;SDS011;11956;53.184;8.578;2023-04-06T18:04:33;16.45;;;10.38;;
23555;SDS011;11956;53.184;8.578;2023-04-06T18:07:34;14.10;;;9.70;;
23555;SDS011;11956;53.184;8.578;2023-04-06T18:10:36;14.00;;;10.13;;
23555;SDS011;11956;53.184;8.578;2023-04-06T18:13:44;15.30;;;10.40;;
23555;SDS011;11956;53.184;8.578;2023-04-06T18:16:45;15.55;;;10.63;;
23555;SDS011;11956;53.184;8.578;2023-04-06T18:19:46;15.23;;;11.13;;
23555;SDS011;11956;53.184;8.578;2023-04-06T18:22:47;17.42;;;10.80;;
23555;SDS011;11956;53.184;8.578;2023-04-06T18:25:48;16.70;;;10.70;;